Willow Valley, Indiana
Current Conditions -  °F | °C
As of 8:15 AM on Thursday 18 Dec 2014 (Local Time) from KDCY Reporting Station
Overcast Overcast  
Wind Chill: -6°   Ceiling: 1700
Heat Index: -3°   Visibility: 7mi
Dew Point: -7°   Wind: 5mph
Humidity: 74%   Direction: 30°NNE
Pressure: 30.3"   Gusts: NA
Location:  38.6262°N, 86.7615°W
Report Text: KDCY 181415Z AUTO 03004KT 7SM OVC017 M03/M07 A3030 RMK AO2 T10261066
Loading
Personal Weather Stations






























Interactive Weather Map New forecast layout! Learn more

10-Day Weather Forecast

Advertisements
Track Severe Weather on mobile